Time;durP1;ratioP1;P1;durP2;ratioP2;P2;SDS_P1;SDS_P2;PMS_P1;PMS_P2;Temp;Humidity;BMP_temperature;BMP_pressure;BME280_temperature;BME280_humidity;BME280_pressure;Samples;Min_cycle;Max_cycle;Signal;HPM_P1;HPM_P2
2021/08/26 00:05:43;;;;;;;12.20;2.75;;;;;;;15.24;100.00;101642.41;2617403;31;20550;-66
2021/08/26 00:06:51;;;;;;;6.28;2.47;;;;;;;15.10;100.00;101629.31;2617139;31;20517;-68
2021/08/26 00:09:22;;;;;;;9.40;3.00;;;;;;;15.19;100.00;101623.00;2615277;31;20109;-66
2021/08/26 00:11:52;;;;;;;7.43;2.95;;;;;;;15.22;100.00;101622.69;2615754;36;20069;-66
2021/08/26 00:14:23;;;;;;;;;;;;;;;15.16;100.00;101634.13;2617151;36;20097;-66
2021/08/26 00:16:52;;;;;;;7.43;2.75;;;;;;;15.11;100.00;101636.44;2616435;36;20302;-66
2021/08/26 00:19:20;;;;;;;9.63;3.00;;;;;;;15.05;100.00;101633.31;2616457;36;20042;-67
2021/08/26 00:21:49;;;;;;;8.13;3.03;;;;;;;15.04;100.00;101618.03;2616187;36;20031;-66
2021/08/26 00:24:17;;;;;;;9.75;3.13;;;;;;;15.07;100.00;101616.88;2617141;31;20346;-66
2021/08/26 00:26:48;;;;;;;8.32;2.95;;;;;;;15.12;100.00;101622.75;2616394;36;20030;-66
2021/08/26 00:29:16;;;;;;;7.75;3.00;;;;;;;15.18;100.00;101622.16;2615560;36;20137;-67
2021/08/26 00:31:44;;;;;;;15.27;3.57;;;;;;;15.17;100.00;101614.16;2616019;36;20022;-66
2021/08/26 00:34:12;;;;;;;13.27;3.30;;;;;;;15.15;100.00;101608.00;2616359;36;20061;-65
2021/08/26 00:36:40;;;;;;;16.27;4.32;;;;;;;15.10;100.00;101602.19;2616207;36;20173;-66
2021/08/26 00:39:09;;;;;;;13.65;3.75;;;;;;;15.10;100.00;101599.47;2616283;36;20129;-65
2021/08/26 00:41:37;;;;;;;13.52;3.72;;;;;;;15.11;100.00;101598.50;2616432;36;20162;-66
2021/08/26 00:44:08;;;;;;;9.85;3.47;;;;;;;15.04;100.00;101607.19;2616233;36;20446;-65
2021/08/26 00:46:36;;;;;;;10.45;3.72;;;;;;;14.91;100.00;101593.09;2616216;36;20126;-64
2021/08/26 00:49:08;;;;;;;13.83;4.53;;;;;;;14.92;100.00;101583.97;2616081;36;20160;-67
2021/08/26 00:51:36;;;;;;;14.93;4.45;;;;;;;14.94;100.00;101592.81;2616557;31;20517;-65
2021/08/26 00:54:05;;;;;;;12.73;4.78;;;;;;;14.92;100.00;101599.41;2615133;36;20046;-65
2021/08/26 00:56:33;;;;;;;17.67;4.72;;;;;;;14.89;100.00;101585.13;2616023;36;20081;-65
2021/08/26 00:59:04;;;;;;;14.23;4.43;;;;;;;15.02;100.00;101579.38;2616477;36;20026;-65
2021/08/26 01:01:43;;;;;;;15.60;4.55;;;;;;;15.05;100.00;101573.66;2616198;36;20114;-66
2021/08/26 01:04:22;;;;;;;14.02;5.22;;;;;;;15.05;100.00;101578.25;2616629;31;20626;-66
2021/08/26 01:06:59;;;;;;;18.65;4.97;;;;;;;15.08;100.00;101583.38;2616736;36;20038;-66
2021/08/26 01:09:34;;;;;;;18.67;4.70;;;;;;;15.06;100.00;101574.50;2616820;36;20023;-67
2021/08/26 01:12:03;;;;;;;19.17;4.63;;;;;;;15.06;100.00;101579.94;2615853;36;20122;-67
2021/08/26 01:14:32;;;;;;;17.17;4.72;;;;;;;15.01;100.00;101572.25;2616123;31;20650;-66
2021/08/26 01:17:03;;;;;;;15.65;4.53;;;;;;;14.97;100.00;101567.28;2616766;36;20513;-67
2021/08/26 01:22:10;;;;;;;17.23;4.22;;;;;;;14.91;100.00;101565.16;2615320;36;20034;-67
2021/08/26 01:24:39;;;;;;;17.58;4.32;;;;;;;14.92;100.00;101562.28;2616320;36;20125;-66
2021/08/26 01:27:11;;;;;;;20.42;5.25;;;;;;;14.86;100.00;101554.75;2617421;31;20402;-67
2021/08/26 01:29:39;;;;;;;13.70;4.68;;;;;;;14.89;100.00;101558.00;2616664;36;20165;-67
2021/08/26 01:32:08;;;;;;;17.17;4.72;;;;;;;14.92;100.00;101556.03;2616518;31;20479;-66
2021/08/26 01:34:37;;;;;;;18.38;4.85;;;;;;;14.95;100.00;101561.16;2616673;31;20034;-66
2021/08/26 01:37:05;;;;;;;21.02;4.53;;;;;;;14.90;100.00;101553.47;2616150;36;20084;-67
2021/08/26 01:39:33;;;;;;;10.30;3.92;;;;;;;15.01;100.00;101550.56;2616616;36;20080;-67
2021/08/26 01:42:02;;;;;;;13.38;4.72;;;;;;;14.96;100.00;101544.75;2616747;36;20513;-66
2021/08/26 01:44:33;;;;;;;16.33;4.32;;;;;;;14.92;100.00;101546.03;2616478;36;20121;-67
2021/08/26 01:47:07;;;;;;;12.07;3.95;;;;;;;14.85;100.00;101547.63;2615736;36;20522;-67
2021/08/26 01:49:35;;;;;;;17.23;4.38;;;;;;;14.94;100.00;101549.44;2616263;36;20114;-66
2021/08/26 01:52:04;;;;;;;21.17;3.65;;;;;;;14.88;100.00;101550.91;2615520;36;20137;-67
2021/08/26 01:54:32;;;;;;;9.63;3.33;;;;;;;14.85;100.00;101548.47;2616153;31;20612;-66
2021/08/26 01:57:00;;;;;;;12.77;3.57;;;;;;;14.78;100.00;101547.38;2616405;31;20118;-66
2021/08/26 01:59:28;;;;;;;10.80;3.80;;;;;;;14.87;100.00;101548.34;2615996;36;20114;-65
2021/08/26 02:01:59;;;;;;;12.55;3.35;;;;;;;14.78;100.00;101543.78;2615957;36;20577;-66
2021/08/26 02:04:27;;;;;;;13.90;3.50;;;;;;;14.79;100.00;101540.94;2616230;36;20070;-66
2021/08/26 02:06:55;;;;;;;15.23;4.07;;;;;;;14.81;100.00;101551.63;2616195;36;20088;-67
2021/08/26 02:09:23;;;;;;;13.52;3.80;;;;;;;14.78;100.00;101546.50;2616534;36;20091;-66
2021/08/26 02:11:52;;;;;;;11.45;3.65;;;;;;;14.84;100.00;101554.91;2615546;36;20177;-68
2021/08/26 02:14:20;;;;;;;13.20;3.13;;;;;;;14.82;100.00;101539.78;2616136;34;20046;-65
2021/08/26 02:16:48;;;;;;;16.60;4.07;;;;;;;14.80;100.00;101539.94;2616092;36;20173;-67
2021/08/26 02:19:19;;;;;;;10.50;3.92;;;;;;;14.73;100.00;101548.81;2615979;36;20110;-67
2021/08/26 02:21:47;;;;;;;15.52;3.65;;;;;;;14.78;100.00;101538.38;2616584;31;20049;-66
2021/08/26 02:24:15;;;;;;;11.65;3.85;;;;;;;14.79;100.00;101537.38;2615929;36;20641;-65
2021/08/26 02:26:44;;;;;;;11.73;4.00;;;;;;;14.74;100.00;101543.25;2616273;36;20125;-66
2021/08/26 02:29:12;;;;;;;13.93;3.83;;;;;;;14.77;100.00;101542.09;2616436;36;23209;-65
2021/08/26 02:31:40;;;;;;;18.52;4.25;;;;;;;14.73;100.00;101538.81;2615475;36;20038;-64
2021/08/26 02:34:08;;;;;;;8.23;3.38;;;;;;;14.67;100.00;101532.13;2616223;31;20457;-65
2021/08/26 02:36:39;;;;;;;12.50;3.83;;;;;;;14.71;100.00;101532.69;2615595;36;20154;-66
2021/08/26 02:39:08;;;;;;;15.57;3.53;;;;;;;14.65;100.00;101528.72;2616065;32;20551;-66
2021/08/26 02:41:36;;;;;;;11.38;3.00;;;;;;;14.66;100.00;101535.84;2615928;36;20031;-65
2021/08/26 02:44:05;;;;;;;16.52;5.07;;;;;;;14.65;100.00;101533.25;2616095;36;20061;-65
2021/08/26 02:46:33;;;;;;;12.15;3.60;;;;;;;14.67;100.00;101532.13;2617282;36;20133;-66
2021/08/26 02:49:01;;;;;;;12.20;2.97;;;;;;;14.69;100.00;101540.09;2616747;36;20142;-65
2021/08/26 02:51:29;;;;;;;12.63;4.43;;;;;;;14.60;100.00;101540.94;2616292;36;20079;-66
2021/08/26 02:54:00;;;;;;;9.20;3.78;;;;;;;14.58;100.00;101546.53;2617485;31;20490;-66
2021/08/26 02:56:29;;;;;;;13.82;3.60;;;;;;;14.57;100.00;101539.38;2616101;36;20022;-67
2021/08/26 02:58:57;;;;;;;15.40;3.45;;;;;;;14.73;100.00;101551.50;2617046;36;20034;-66
2021/08/26 03:01:25;;;;;;;14.82;3.75;;;;;;;14.68;100.00;101544.69;2616542;36;20637;-67
2021/08/26 03:03:53;;;;;;;11.77;2.90;;;;;;;14.69;100.00;101543.69;2616706;36;20046;-65
2021/08/26 03:06:22;;;;;;;11.43;2.92;;;;;;;14.68;100.00;101541.97;2616228;36;20038;-65
2021/08/26 03:08:50;;;;;;;18.92;4.53;;;;;;;14.66;100.00;101543.97;2617751;31;20476;-66
2021/08/26 03:11:21;;;;;;;14.37;3.27;;;;;;;14.64;100.00;101540.53;2616643;36;20106;-66
2021/08/26 03:13:49;;;;;;;12.93;3.53;;;;;;;14.77;100.00;101529.41;2616185;36;20114;-66
2021/08/26 03:16:17;;;;;;;12.23;3.63;;;;;;;14.74;100.00;101531.53;2617391;31;20073;-67
2021/08/26 03:18:45;;;;;;;7.28;3.22;;;;;;;14.70;100.00;101534.53;2616634;36;20022;-65
2021/08/26 03:21:14;;;;;;;9.80;3.00;;;;;;;14.74;100.00;101534.22;2617016;36;20053;-66
2021/08/26 03:23:42;;;;;;;17.13;3.95;;;;;;;14.68;100.00;101539.25;2617032;31;20038;-67
2021/08/26 03:26:10;;;;;;;13.07;3.60;;;;;;;14.58;100.00;101527.56;2616239;36;20054;-65
2021/08/26 03:28:41;;;;;;;10.77;2.72;;;;;;;14.69;100.00;101530.13;2617726;31;20482;-67
2021/08/26 03:31:09;;;;;;;12.20;3.58;;;;;;;14.62;100.00;101529.00;2616389;36;20038;-65
2021/08/26 03:33:37;;;;;;;12.85;2.38;;;;;;;14.58;100.00;101521.28;2616713;36;20475;-65
2021/08/26 03:36:06;;;;;;;14.57;3.22;;;;;;;14.63;100.00;101528.00;2617708;31;20471;-67
2021/08/26 03:38:35;;;;;;;12.75;3.15;;;;;;;14.52;100.00;101517.31;2616677;36;20030;-66
2021/08/26 03:41:03;;;;;;;11.30;2.60;;;;;;;14.55;100.00;101511.59;2616985;36;20153;-66
2021/08/26 03:43:31;;;;;;;10.80;2.78;;;;;;;14.66;100.00;101521.44;2617201;31;20600;-66
2021/08/26 03:46:02;;;;;;;12.27;2.87;;;;;;;14.64;100.00;101505.31;2616496;36;20088;-65
2021/08/26 03:48:30;;;;;;;14.77;3.22;;;;;;;14.61;100.00;101511.03;2616908;36;20038;-66
2021/08/26 03:50:58;;;;;;;15.38;3.08;;;;;;;14.59;100.00;101512.16;2614833;36;20154;-67
2021/08/26 03:53:27;;;;;;;10.52;3.67;;;;;;;14.63;100.00;101500.91;2617194;36;20037;-66
2021/08/26 03:55:55;;;;;;;13.30;3.33;;;;;;;14.68;100.00;101505.91;2616028;36;20041;-66
2021/08/26 03:58:23;;;;;;;10.45;3.05;;;;;;;14.67;100.00;101502.31;2616797;36;20177;-66
2021/08/26 04:00:51;;;;;;;16.27;3.28;;;;;;;14.66;100.00;101507.88;2616553;36;20072;-66
2021/08/26 04:03:22;;;;;;;14.57;3.20;;;;;;;14.75;100.00;101514.28;2616325;36;20568;-66
2021/08/26 04:05:50;;;;;;;16.02;3.30;;;;;;;14.63;100.00;101517.16;2616926;36;20532;-65
2021/08/26 04:08:18;;;;;;;14.20;2.72;;;;;;;14.60;100.00;101522.84;2615874;31;20114;-65
2021/08/26 04:10:47;;;;;;;14.80;2.67;;;;;;;14.63;100.00;101514.44;2616292;36;20059;-66
2021/08/26 04:13:15;;;;;;;11.55;3.10;;;;;;;14.57;100.00;101498.75;2616555;36;20038;-66
2021/08/26 04:15:43;;;;;;;8.93;2.50;;;;;;;14.49;100.00;101493.22;2616662;36;20154;-65
2021/08/26 04:18:11;;;;;;;11.95;3.28;;;;;;;14.53;100.00;101486.50;2616597;36;20585;-66
2021/08/26 04:20:42;;;;;;;7.30;2.40;;;;;;;14.61;100.00;101493.91;2616652;36;20538;-66
2021/08/26 04:23:10;;;;;;;10.38;2.08;;;;;;;14.62;100.00;101493.78;2616636;36;20375;-66
2021/08/26 04:25:39;;;;;;;9.20;2.17;;;;;;;14.60;100.00;101486.78;2615612;31;20110;-66
2021/08/26 04:28:07;;;;;;;7.85;2.33;;;;;;;14.60;100.00;101493.03;2615777;36;20122;-66
2021/08/26 04:30:36;;;;;;;10.55;2.33;;;;;;;14.53;100.00;101476.53;2616459;36;20543;-67
2021/08/26 04:33:06;;;;;;;9.68;2.53;;;;;;;14.53;100.00;101486.50;2615997;36;20042;-66
2021/08/26 04:35:34;;;;;;;7.65;2.72;;;;;;;14.48;100.00;101484.22;2617515;31;20045;-66
2021/08/26 04:38:05;;;;;;;7.70;2.23;;;;;;;14.53;100.00;101491.91;2616180;36;20129;-67
2021/08/26 04:40:33;;;;;;;9.18;1.95;;;;;;;14.50;100.00;101492.22;2616446;36;20057;-65
2021/08/26 04:43:01;;;;;;;9.93;2.90;;;;;;;14.49;100.00;101495.94;2616489;36;20157;-66
2021/08/26 04:45:30;;;;;;;12.00;2.65;;;;;;;14.54;100.00;101489.06;2616338;36;20046;-65
2021/08/26 04:47:58;;;;;;;11.37;2.60;;;;;;;14.52;100.00;101485.66;2615978;36;20157;-67
2021/08/26 04:50:26;;;;;;;12.18;2.53;;;;;;;14.59;100.00;101490.47;2616285;31;20723;-66
2021/08/26 04:52:54;;;;;;;14.30;2.80;;;;;;;14.53;100.00;101489.19;2615695;36;20054;-66
2021/08/26 04:55:25;;;;;;;13.27;2.50;;;;;;;14.44;100.00;101485.53;2616701;36;20130;-65
2021/08/26 04:57:54;;;;;;;16.23;3.08;;;;;;;14.50;100.00;101487.66;2616563;36;20110;-65
2021/08/26 05:00:22;;;;;;;8.82;2.38;;;;;;;14.47;100.00;101481.66;2616184;31;20038;-65
2021/08/26 05:02:50;;;;;;;10.77;2.35;;;;;;;14.46;100.00;101485.41;2616613;31;20499;-65
2021/08/26 05:05:18;;;;;;;8.07;2.70;;;;;;;14.51;100.00;101477.66;2615764;36;20618;-68
2021/08/26 05:07:46;;;;;;;9.20;2.33;;;;;;;14.61;100.00;101478.53;2616135;31;20122;-66
2021/08/26 05:10:15;;;;;;;9.50;2.28;;;;;;;14.55;100.00;101484.50;2616049;36;20140;-67
2021/08/26 05:12:45;;;;;;;10.40;2.70;;;;;;;14.57;100.00;101487.91;2616311;36;20073;-65
2021/08/26 05:15:14;;;;;;;9.48;2.35;;;;;;;14.54;100.00;101482.78;2616450;36;20560;-65
2021/08/26 05:17:42;;;;;;;8.60;2.10;;;;;;;14.56;100.00;101486.22;2616820;36;20079;-65
2021/08/26 05:20:11;;;;;;;6.32;1.90;;;;;;;14.60;100.00;101476.78;2616152;36;20110;-65
2021/08/26 05:22:39;;;;;;;10.48;2.25;;;;;;;14.72;100.00;101477.47;2616252;36;20141;-66
2021/08/26 05:25:08;;;;;;;7.22;2.10;;;;;;;14.78;100.00;101479.63;2615494;36;20121;-65
2021/08/26 05:27:36;;;;;;;11.90;2.78;;;;;;;14.75;100.00;101479.06;2615319;36;20072;-67
2021/08/26 05:30:08;;;;;;;5.93;2.00;;;;;;;14.78;100.00;101484.16;2614511;36;20084;-65
2021/08/26 05:32:36;;;;;;;14.32;2.75;;;;;;;14.79;100.00;101488.59;2615554;36;20396;-66
2021/08/26 05:35:05;;;;;;;8.13;2.15;;;;;;;14.84;100.00;101484.44;2617201;36;20127;-64
2021/08/26 05:37:33;;;;;;;11.38;2.72;;;;;;;14.83;100.00;101493.56;2616205;31;20503;-66
2021/08/26 05:40:01;;;;;;;12.13;2.35;;;;;;;14.91;100.00;101492.81;2614514;36;20184;-66
2021/08/26 05:42:29;;;;;;;14.95;3.10;;;;;;;14.93;100.00;101485.41;2616036;36;20114;-66
2021/08/26 05:44:57;;;;;;;11.35;2.63;;;;;;;14.89;100.00;101486.69;2615175;36;20022;-66
2021/08/26 05:47:28;;;;;;;7.78;2.15;;;;;;;15.00;100.00;101489.22;2615822;36;20113;-66
2021/08/26 05:49:56;;;;;;;10.93;2.70;;;;;;;14.95;100.00;101490.69;2615488;36;20542;-66
2021/08/26 05:52:25;;;;;;;14.35;3.08;;;;;;;14.89;100.00;101501.09;2616001;36;20633;-65
2021/08/26 05:54:53;;;;;;;13.35;2.20;;;;;;;14.88;100.00;101503.97;2616307;36;20121;-66
2021/08/26 05:57:21;;;;;;;13.20;2.35;;;;;;;14.82;100.00;101494.56;2616197;36;20558;-65
2021/08/26 05:59:49;;;;;;;6.38;1.92;;;;;;;14.81;100.00;101500.13;2616868;31;20519;-67
2021/08/26 06:02:17;;;;;;;6.60;2.08;;;;;;;14.91;100.00;101500.94;2615319;36;20073;-64
2021/08/26 06:04:48;;;;;;;9.15;1.85;;;;;;;14.89;100.00;101498.38;2615513;36;20069;-66
2021/08/26 06:07:16;;;;;;;5.30;1.98;;;;;;;14.77;100.00;101505.00;2615337;36;20509;-66
2021/08/26 06:09:44;;;;;;;7.18;1.88;;;;;;;14.69;100.00;101513.00;2615708;31;20192;-65
2021/08/26 06:12:13;;;;;;;6.82;1.90;;;;;;;14.75;100.00;101508.84;2615836;36;20130;-66
2021/08/26 06:14:41;;;;;;;10.07;2.00;;;;;;;14.70;100.00;101520.13;2616407;36;20022;-66
2021/08/26 06:17:09;;;;;;;6.50;2.20;;;;;;;14.77;100.00;101521.25;2616305;36;20076;-67
2021/08/26 06:19:37;;;;;;;7.97;2.40;;;;;;;14.87;100.00;101519.38;2616598;36;20149;-65
2021/08/26 06:22:08;;;;;;;8.57;2.28;;;;;;;14.78;100.00;101516.69;2615385;36;20088;-65
2021/08/26 06:24:36;;;;;;;12.63;2.85;;;;;;;14.73;100.00;101521.72;2616063;36;20076;-67
2021/08/26 06:27:05;;;;;;;6.35;2.45;;;;;;;14.53;100.00;101528.00;2614791;36;20153;-66
2021/08/26 06:29:33;;;;;;;10.25;3.05;;;;;;;14.43;100.00;101524.44;2616988;36;20513;-68
2021/08/26 06:32:01;;;;;;;11.27;3.20;;;;;;;14.46;100.00;101521.44;2616260;36;20167;-66
2021/08/26 06:34:30;;;;;;;12.38;3.13;;;;;;;14.58;100.00;101521.28;2615843;31;20507;-66
2021/08/26 06:36:59;;;;;;;13.30;3.53;;;;;;;14.80;100.00;101515.53;2615945;36;20574;-67
2021/08/26 06:39:29;;;;;;;10.60;2.97;;;;;;;14.89;100.00;101514.66;2614202;36;20546;-66
2021/08/26 06:41:58;;;;;;;12.13;3.33;;;;;;;14.99;100.00;101520.03;2614601;36;20149;-66
2021/08/26 06:44:26;;;;;;;11.88;3.65;;;;;;;14.98;100.00;101525.63;2614062;36;20041;-67
2021/08/26 06:46:54;;;;;;;9.95;2.95;;;;;;;14.95;100.00;101518.63;2615508;31;20486;-66
2021/08/26 06:49:23;;;;;;;9.27;2.95;;;;;;;14.98;100.00;101521.03;2614992;36;20642;-66
2021/08/26 06:51:51;;;;;;;10.98;2.95;;;;;;;14.81;100.00;101524.53;2615210;36;20434;-67
2021/08/26 06:54:19;;;;;;;14.05;3.25;;;;;;;14.84;100.00;101513.38;2613283;31;20105;-65
2021/08/26 06:56:50;;;;;;;11.13;3.13;;;;;;;14.94;100.00;101516.91;2612227;31;20524;-66
2021/08/26 06:59:18;;;;;;;16.95;3.70;;;;;;;15.07;100.00;101522.00;2616931;36;20130;-65
2021/08/26 07:04:25;;;;;;;;;;;;;;;15.42;100.00;101510.41;2615031;36;20037;-67
2021/08/26 07:06:54;;;;;;;10.95;3.30;;;;;;;15.47;100.00;101503.66;2616750;36;20000;-66
2021/08/26 07:09:23;;;;;;;12.77;3.40;;;;;;;15.55;100.00;101492.91;2617117;36;20168;-66
2021/08/26 07:11:54;;;;;;;15.30;3.58;;;;;;;15.77;100.00;101495.16;2616708;31;20118;-66
2021/08/26 07:14:22;;;;;;;14.50;3.53;;;;;;;15.70;100.00;101491.38;2616339;36;20031;-66
2021/08/26 07:16:51;;;;;;;17.30;3.30;;;;;;;15.66;100.00;101500.81;2616660;36;20118;-66
2021/08/26 07:19:19;;;;;;;12.13;3.22;;;;;;;15.61;100.00;101505.88;2616741;36;20023;-65
2021/08/26 07:21:48;;;;;;;8.82;3.05;;;;;;;15.33;100.00;101514.03;2616887;36;20114;-66
2021/08/26 07:24:16;;;;;;;11.80;3.03;;;;;;;15.28;100.00;101519.03;2616602;36;20093;-66
2021/08/26 07:26:44;;;;;;;10.50;2.90;;;;;;;15.27;100.00;101525.47;2616238;36;20034;-66
2021/08/26 07:29:16;;;;;;;12.68;3.10;;;;;;;15.41;100.00;101516.84;2616275;36;20510;-65
2021/08/26 07:31:45;;;;;;;10.93;3.40;;;;;;;15.55;100.00;101522.75;2616885;36;20439;-64
2021/08/26 07:34:14;;;;;;;12.93;3.28;;;;;;;15.69;100.00;101516.78;2616545;36;20541;-65
2021/08/26 07:36:42;;;;;;;13.60;3.40;;;;;;;15.76;100.00;101512.44;2615862;36;20058;-66
2021/08/26 07:39:10;;;;;;;10.20;2.90;;;;;;;15.74;100.00;101514.47;2616586;31;20110;-65
2021/08/26 07:41:39;;;;;;;9.63;3.00;;;;;;;16.06;100.00;101518.56;2617209;36;20023;-65
2021/08/26 07:44:07;;;;;;;12.00;3.20;;;;;;;16.22;100.00;101508.81;2617669;36;20084;-65
2021/08/26 07:46:38;;;;;;;10.43;2.80;;;;;;;16.40;100.00;101503.34;2614762;54;20133;-65
2021/08/26 07:49:07;;;;;;;13.10;4.10;;;;;;;16.56;100.00;101508.06;2617356;36;20031;-66
2021/08/26 07:51:36;;;;;;;8.95;3.20;;;;;;;16.71;100.00;101508.31;2617731;36;20026;-65
2021/08/26 07:54:04;;;;;;;10.97;2.90;;;;;;;16.65;100.00;101504.38;2615946;36;20157;-64
2021/08/26 07:56:35;;;;;;;10.53;2.80;;;;;;;16.73;100.00;101501.72;2616442;36;20117;-65
2021/08/26 07:59:03;;;;;;;10.50;3.13;;;;;;;16.81;100.00;101501.78;2616053;36;20034;-64
2021/08/26 08:01:31;;;;;;;8.47;3.80;;;;;;;17.16;100.00;101494.47;2616144;36;20030;-65
2021/08/26 08:04:02;;;;;;;10.63;3.43;;;;;;;17.54;100.00;101482.34;2615901;36;20569;-64
2021/08/26 08:06:30;;;;;;;14.98;3.28;;;;;;;17.75;100.00;101476.44;2614798;31;20410;-65
2021/08/26 08:08:58;;;;;;;6.20;2.40;;;;;;;17.59;100.00;101482.69;2617019;36;20134;-66
2021/08/26 08:11:26;;;;;;;10.53;3.37;;;;;;;17.68;100.00;101471.66;2616366;31;20109;-64
2021/08/26 08:13:55;;;;;;;10.90;2.97;;;;;;;17.64;100.00;101475.72;2617578;36;20077;-65
2021/08/26 08:16:23;;;;;;;11.48;3.08;;;;;;;17.23;100.00;101480.22;2617459;36;20022;-65
2021/08/26 08:18:51;;;;;;;12.05;2.88;;;;;;;17.04;100.00;101490.34;2617405;36;20547;-65
2021/08/26 08:21:22;;;;;;;11.97;2.87;;;;;;;16.84;100.00;101494.28;2617487;36;20650;-64
2021/08/26 08:23:50;;;;;;;10.15;3.33;;;;;;;17.03;100.00;101494.06;2617900;31;20541;-65
2021/08/26 08:26:19;;;;;;;11.30;3.13;;;;;;;17.14;100.00;101496.50;2615877;36;20110;-65
2021/08/26 08:28:47;;;;;;;8.47;3.07;;;;;;;17.28;100.00;101496.91;2616022;36;20142;-64
2021/08/26 08:31:15;;;;;;;6.53;2.17;;;;;;;17.56;100.00;101496.63;2616434;36;20106;-66
2021/08/26 08:33:44;;;;;;;9.00;2.70;;;;;;;17.70;100.00;101482.38;2616919;36;20521;-66
2021/08/26 08:36:12;;;;;;;7.65;2.42;;;;;;;17.89;100.00;101483.06;2616241;36;20022;-65
2021/08/26 08:38:43;;;;;;;7.85;2.30;;;;;;;17.71;100.00;101470.47;2616865;31;20113;-65
2021/08/26 08:41:12;;;;;;;9.40;2.67;;;;;;;17.58;100.00;101472.81;2616920;36;20122;-64
2021/08/26 08:43:40;;;;;;;10.38;2.60;;;;;;;17.21;100.00;101474.09;2615838;36;20614;-64
2021/08/26 08:46:09;;;;;;;6.50;2.93;;;;;;;17.30;100.00;101467.69;2616160;36;20082;-64
2021/08/26 08:48:42;;;;;;;8.32;2.67;;;;;;;17.54;100.00;101474.19;2615978;36;20026;-63
2021/08/26 08:51:11;;;;;;;6.75;2.33;;;;;;;17.79;100.00;101464.19;2616803;36;20113;-65
2021/08/26 08:53:43;;;;;;;13.02;3.00;;;;;;;17.42;100.00;101473.66;2615279;36;20026;-64
2021/08/26 08:56:11;;;;;;;10.77;2.72;;;;;;;17.60;100.00;101476.25;2616737;36;20034;-64
2021/08/26 08:58:41;;;;;;;10.68;2.78;;;;;;;17.57;100.00;101471.97;2617613;36;20077;-64
2021/08/26 09:01:10;;;;;;;10.35;2.55;;;;;;;17.30;100.00;101484.00;2616845;36;20084;-65
2021/08/26 09:03:39;;;;;;;;;;;;;;;17.24;100.00;101485.50;2616771;36;20110;-65
2021/08/26 09:06:08;;;;;;;11.52;3.10;;;;;;;16.86;100.00;101482.25;2615591;36;19989;-65
2021/08/26 09:08:36;;;;;;;8.30;2.80;;;;;;;17.28;100.00;101477.84;2617166;31;20621;-66
2021/08/26 09:11:16;;;;;;;8.48;2.85;;;;;;;17.41;100.00;101475.50;2614992;36;20682;-66
2021/08/26 09:13:45;;;;;;;8.55;2.85;;;;;;;17.39;100.00;101473.97;2616593;36;20154;-66
2021/08/26 09:16:15;;;;;;;13.30;3.35;;;;;;;17.13;100.00;101474.91;2615784;36;20610;-64
2021/08/26 09:18:43;;;;;;;8.32;3.30;;;;;;;17.15;100.00;101471.03;2615713;36;20045;-65
2021/08/26 09:21:14;;;;;;;9.45;3.60;;;;;;;17.16;100.00;101480.88;2614700;36;20073;-65
2021/08/26 09:23:56;;;;;;;12.50;3.33;;;;;;;17.03;100.00;101477.75;2615958;36;20045;-66
2021/08/26 09:26:29;;;;;;;13.10;3.80;;;;;;;16.88;100.00;101479.41;2615102;36;20142;-66
2021/08/26 09:29:03;;;;;;;17.05;4.35;;;;;;;16.94;100.00;101479.59;2610097;36;20658;-66
2021/08/26 09:31:34;;;;;;;21.65;4.53;;;;;;;17.06;100.00;101482.88;2616537;31;20065;-63
2021/08/26 09:34:04;;;;;;;15.32;4.38;;;;;;;16.88;100.00;101487.56;2616233;36;20165;-65
2021/08/26 09:36:35;;;;;;;14.02;3.83;;;;;;;16.80;100.00;101483.75;2616407;36;20037;-65
2021/08/26 09:39:06;;;;;;;12.45;4.00;;;;;;;17.03;100.00;101483.19;2617115;31;20154;-66
2021/08/26 09:41:46;;;;;;;14.93;3.85;;;;;;;16.85;100.00;101485.13;2616568;36;20070;-65
2021/08/26 09:44:16;;;;;;;15.15;4.00;;;;;;;16.98;100.00;101478.25;2617075;36;20065;-64
2021/08/26 09:46:46;;;;;;;15.52;3.35;;;;;;;16.98;100.00;101475.53;2616951;36;20054;-66
2021/08/26 09:49:16;;;;;;;11.95;4.15;;;;;;;17.21;100.00;101468.66;2617234;36;20126;-64
2021/08/26 09:51:45;;;;;;;14.13;4.10;;;;;;;17.47;100.00;101474.00;2617414;36;20150;-66
2021/08/26 09:54:28;;;;;;;;;;;;;;;17.92;100.00;101467.28;2617184;36;20022;-67
2021/08/26 09:57:00;;;;;;;13.25;3.97;;;;;;;18.30;100.00;101470.34;2616130;36;20478;-65
2021/08/26 09:59:50;;;;;;;11.05;4.07;;;;;;;18.44;100.00;101466.06;2617023;31;20122;-66
2021/08/26 10:02:19;;;;;;;12.85;3.88;;;;;;;18.36;100.00;101471.53;2617145;36;20053;-64
2021/08/26 10:04:49;;;;;;;12.52;3.47;;;;;;;17.98;100.00;101465.75;2617798;31;20548;-65
2021/08/26 10:07:17;;;;;;;12.20;2.95;;;;;;;18.00;100.00;101467.28;2617238;36;20141;-65
2021/08/26 10:09:47;;;;;;;13.95;4.15;;;;;;;18.19;100.00;101471.53;2616797;36;20556;-65
2021/08/26 10:12:18;;;;;;;13.38;5.25;;;;;;;18.11;100.00;101471.53;2616973;31;20121;-64
2021/08/26 10:14:48;;;;;;;14.52;4.20;;;;;;;18.19;100.00;101471.53;2616147;36;20142;-64
2021/08/26 10:17:17;;;;;;;13.23;3.90;;;;;;;18.24;100.00;101476.50;2615957;31;20122;-65
2021/08/26 10:19:46;;;;;;;15.40;4.75;;;;;;;18.23;100.00;101468.44;2616617;36;20029;-64
2021/08/26 10:22:14;;;;;;;13.55;4.68;;;;;;;18.03;100.00;101466.09;2616741;36;20023;-64
2021/08/26 10:24:43;;;;;;;13.68;4.35;;;;;;;17.85;100.00;101472.50;2615284;36;20035;-65
2021/08/26 10:27:14;;;;;;;16.50;4.10;;;;;;;17.84;100.00;101476.28;2612477;31;20153;-65
2021/08/26 10:29:49;;;;;;;18.05;4.30;;;;;;;17.92;100.00;101470.00;2614793;36;20145;-65
2021/08/26 10:32:19;;;;;;;14.57;4.65;;;;;;;18.33;100.00;101471.84;2615173;36;20370;-64
2021/08/26 10:35:06;;;;;;;16.25;4.78;;;;;;;18.70;100.00;101475.88;2614892;36;20072;-65
2021/08/26 10:37:48;;;;;;;19.98;4.85;;;;;;;18.94;100.00;101476.88;2615085;36;20165;-64
2021/08/26 10:40:32;;;;;;;14.95;4.57;;;;;;;19.35;100.00;101479.41;2615024;36;20533;-65
2021/08/26 10:43:00;;;;;;;15.00;3.83;;;;;;;19.31;100.00;101467.13;2614990;36;20069;-64
2021/08/26 10:45:47;;;;;;;17.15;4.60;;;;;;;19.54;100.00;101472.63;2616626;31;20039;-65
2021/08/26 10:48:21;;;;;;;12.68;3.90;;;;;;;19.41;100.00;101474.06;2615733;36;20027;-64
2021/08/26 10:51:05;;;;;;;16.08;3.90;;;;;;;19.59;100.00;101473.78;2614173;36;20030;-64
2021/08/26 10:53:34;;;;;;;15.43;4.00;;;;;;;19.47;100.00;101472.50;2613123;36;20030;-66
2021/08/26 10:56:19;;;;;;;18.52;5.03;;;;;;;19.29;100.00;101469.19;2613437;36;20694;-66
2021/08/26 10:58:48;;;;;;;13.85;4.68;;;;;;;19.45;100.00;101480.03;2613824;36;20035;-65
2021/08/26 11:01:38;;;;;;;10.43;3.72;;;;;;;19.43;100.00;101463.84;2617438;31;20638;-64
2021/08/26 11:04:08;;;;;;;13.20;3.83;;;;;;;18.47;100.00;101484.78;2616177;36;20057;-65
2021/08/26 11:06:54;;;;;;;11.57;4.20;;;;;;;18.89;100.00;101497.31;2617145;31;20026;-64
2021/08/26 11:09:33;;;;;;;12.85;4.28;;;;;;;19.20;100.00;101488.34;2617076;36;20084;-64
2021/08/26 11:12:07;;;;;;;15.48;4.10;;;;;;;18.95;100.00;101484.00;2617487;36;20035;-64
2021/08/26 11:14:41;;;;;;;12.30;3.50;;;;;;;18.98;100.00;101484.50;2616624;36;20075;-64
2021/08/26 11:17:26;;;;;;;11.27;3.60;;;;;;;19.21;100.00;101479.13;2617583;36;20492;-65
2021/08/26 11:19:54;;;;;;;13.80;3.83;;;;;;;19.24;100.00;101480.63;2614366;36;20061;-66
2021/08/26 11:22:23;;;;;;;10.18;3.63;;;;;;;19.42;100.00;101478.50;2617034;36;20554;-65
2021/08/26 11:24:54;;;;;;;11.70;3.53;;;;;;;19.87;100.00;101465.06;2615660;36;20053;-64
2021/08/26 11:27:26;;;;;;;15.63;4.20;;;;;;;19.83;100.00;101476.56;2616705;36;20126;-66
2021/08/26 11:29:55;;;;;;;13.77;4.38;;;;;;;20.08;100.00;101472.59;2616472;31;20608;-66
2021/08/26 11:32:29;;;;;;;17.58;4.13;;;;;;;20.63;100.00;101462.31;2616776;36;20030;-65